createdAt,value
2019-06-26T03:08:41.235Z,101196.00
2019-06-26T03:12:06.016Z,101202.00
2019-06-26T03:15:04.556Z,101208.00
2019-06-26T03:18:02.383Z,101207.00
2019-06-26T03:21:25.651Z,101215.00
2019-06-26T03:24:34.217Z,101224.00
2019-06-26T03:27:33.755Z,101216.00
2019-06-26T03:30:19.874Z,101216.00
2019-06-26T03:32:47.487Z,101221.00
2019-06-26T03:35:18.176Z,101235.00
2019-06-26T03:37:48.877Z,101232.00
2019-06-26T03:40:20.008Z,101236.00
2019-06-26T03:42:50.342Z,101238.00
2019-06-26T03:45:25.510Z,101234.00
2019-06-26T03:47:53.485Z,101226.00
2019-06-26T03:50:23.813Z,101245.00
2019-06-26T03:52:54.398Z,101247.00
2019-06-26T03:55:25.069Z,101257.00
2019-06-26T03:57:55.651Z,101246.00
2019-06-26T04:00:40.876Z,101243.00
2019-06-26T04:03:11.431Z,101248.00
2019-06-26T04:05:42.249Z,101255.00
2019-06-26T04:08:13.171Z,101249.00
2019-06-26T04:10:43.770Z,101244.00
2019-06-26T04:13:14.448Z,101251.00
2019-06-26T04:15:45.064Z,101256.00
2019-06-26T04:18:15.827Z,101253.00
2019-06-26T04:20:46.239Z,101253.00
2019-06-26T04:23:16.592Z,101258.00
2019-06-26T04:25:46.937Z,101254.00
2019-06-26T04:28:17.809Z,101263.00
2019-06-26T04:30:49.150Z,101270.00
2019-06-26T04:33:19.525Z,101266.00
2019-06-26T04:35:49.874Z,101266.00
2019-06-26T04:38:20.213Z,101265.00
2019-06-26T04:40:50.833Z,101276.00
2019-06-26T04:43:21.181Z,101278.00
2019-06-26T04:45:58.309Z,101276.00
2019-06-26T04:48:23.860Z,101281.00
2019-06-26T04:50:54.214Z,101284.00
2019-06-26T04:53:24.908Z,101284.00
2019-06-26T04:55:55.515Z,101285.00
2019-06-26T04:58:26.141Z,101282.00
2019-06-26T05:00:56.478Z,101289.00
2019-06-26T05:03:27.249Z,101296.00
2019-06-26T05:05:58.034Z,101302.00
2019-06-26T05:08:28.365Z,101308.00
2019-06-26T05:10:58.747Z,101308.00
2019-06-26T05:13:29.066Z,101311.00
2019-06-26T05:16:13.830Z,101308.00
2019-06-26T05:18:32.415Z,101315.00
2019-06-26T05:21:03.058Z,101315.00
2019-06-26T05:23:34.003Z,101313.00
2019-06-26T05:26:04.379Z,101319.00
2019-06-26T05:28:35.371Z,101314.00
2019-06-26T05:31:05.771Z,101326.00
2019-06-26T05:33:36.478Z,101323.00
2019-06-26T05:36:07.348Z,101334.00
2019-06-26T05:38:38.118Z,101335.00
2019-06-26T05:41:07.859Z,101338.00
2019-06-26T05:43:38.204Z,101340.00
2019-06-26T05:46:08.693Z,101355.00
2019-06-26T05:48:39.574Z,101347.00
2019-06-26T05:51:09.924Z,101346.00
2019-06-26T05:53:40.607Z,101356.00
2019-06-26T05:56:11.230Z,101352.00
2019-06-26T05:58:41.720Z,101357.00
2019-06-26T06:01:12.112Z,101359.00
2019-06-26T06:03:42.922Z,101361.00
2019-06-26T06:06:13.869Z,101365.00
2019-06-26T06:08:44.490Z,101363.00
2019-06-26T06:11:15.157Z,101373.00
2019-06-26T06:13:45.757Z,101369.00
2019-06-26T06:16:16.733Z,101366.00
2019-06-26T06:18:47.030Z,101369.00
2019-06-26T06:21:17.715Z,101367.00
2019-06-26T06:23:48.042Z,101375.00
2019-06-26T06:26:18.439Z,101368.00
2019-06-26T06:28:48.800Z,101370.00
2019-06-26T06:31:19.519Z,101372.00
2019-06-26T06:33:49.843Z,101376.00
2019-06-26T06:36:20.432Z,101373.00
2019-06-26T06:38:50.807Z,101377.00
2019-06-26T06:41:21.596Z,101370.00
2019-06-26T06:43:52.000Z,101372.00
2019-06-26T06:46:22.335Z,101375.00
2019-06-26T06:48:52.692Z,101383.00
2019-06-26T06:51:23.090Z,101380.00
2019-06-26T06:53:53.793Z,101385.00
2019-06-26T06:56:24.119Z,101382.00
2019-06-26T06:58:54.574Z,101384.00
2019-06-26T07:01:25.013Z,101385.00
2019-06-26T07:03:55.661Z,101390.00
2019-06-26T07:06:26.283Z,101381.00
2019-06-26T07:08:56.644Z,101391.00
2019-06-26T07:11:27.480Z,101389.00
2019-06-26T07:13:57.916Z,101394.00
2019-06-26T07:16:28.405Z,101398.00
2019-06-26T07:18:58.801Z,101400.00
2019-06-26T07:21:29.165Z,101407.00
2019-06-26T07:23:59.465Z,101405.00
2019-06-26T07:26:30.215Z,101409.00
2019-06-26T07:29:00.866Z,101421.00
2019-06-26T07:31:31.477Z,101421.00
2019-06-26T07:34:02.377Z,101425.00
2019-06-26T07:36:33.219Z,101425.00
2019-06-26T07:39:04.690Z,101433.00
2019-06-26T07:41:35.148Z,101443.00
2019-06-26T07:44:05.518Z,101450.00
2019-06-26T07:46:35.871Z,101444.00
2019-06-26T07:49:06.508Z,101432.00
2019-06-26T07:51:36.845Z,101443.00
2019-06-26T07:54:07.144Z,101433.00
2019-06-26T07:56:37.821Z,101427.00
2019-06-26T07:59:08.186Z,101425.00
2019-06-26T08:01:39.221Z,101425.00
2019-06-26T08:04:10.173Z,101426.00
2019-06-26T08:06:40.859Z,101423.00
2019-06-26T08:09:11.371Z,101423.00
2019-06-26T08:11:42.162Z,101434.00
2019-06-26T08:14:12.508Z,101436.00
2019-06-26T08:16:43.359Z,101441.00
2019-06-26T08:19:13.708Z,101445.00
2019-06-26T08:21:46.742Z,101434.00
2019-06-26T08:24:16.909Z,101437.00
2019-06-26T08:26:47.311Z,101438.00
2019-06-26T08:29:17.925Z,101441.00
2019-06-26T08:31:48.284Z,101438.00
2019-06-26T08:34:18.728Z,101427.00
2019-06-26T08:36:49.160Z,101441.00
2019-06-26T08:39:19.811Z,101436.00
2019-06-26T08:41:50.875Z,101444.00
2019-06-26T08:44:21.764Z,101443.00
2019-06-26T08:46:52.132Z,101452.00
2019-06-26T08:49:25.965Z,101442.00
2019-06-26T08:51:55.419Z,101455.00
2019-06-26T08:54:26.396Z,101451.00
2019-06-26T08:56:56.811Z,101451.00
2019-06-26T08:59:27.487Z,101459.00
2019-06-26T09:01:58.133Z,101461.00
2019-06-26T09:04:29.034Z,101465.00
2019-06-26T09:06:59.329Z,101466.00
2019-06-26T09:09:29.968Z,101464.00
2019-06-26T09:12:00.803Z,101476.00
2019-06-26T09:14:31.226Z,101488.00
2019-06-26T09:17:01.636Z,101483.00
2019-06-26T09:19:31.987Z,101487.00
2019-06-26T09:22:02.363Z,101483.00
2019-06-26T09:24:32.812Z,101495.00
2019-06-26T09:27:03.173Z,101489.00
2019-06-26T09:29:34.122Z,101488.00
2019-06-26T09:32:05.023Z,101484.00
2019-06-26T09:34:35.689Z,101494.00
2019-06-26T09:37:05.992Z,101494.00
2019-06-26T09:39:37.224Z,101502.00
2019-06-26T09:42:08.307Z,101502.00
2019-06-26T09:44:38.655Z,101502.00
2019-06-26T09:47:08.984Z,101503.00
2019-06-26T09:49:39.376Z,101511.00
2019-06-26T09:52:09.713Z,101506.00
2019-06-26T09:54:40.624Z,101507.00
2019-06-26T09:57:11.008Z,101509.00
2019-06-26T09:59:41.350Z,101518.00
2019-06-26T10:02:11.750Z,101508.00
2019-06-26T10:04:42.335Z,101511.00
2019-06-26T10:07:13.689Z,101512.00
2019-06-26T10:09:44.003Z,101524.00
2019-06-26T10:12:14.881Z,101522.00
2019-06-26T10:14:47.830Z,101511.00
2019-06-26T10:17:17.373Z,101526.00
2019-06-26T10:19:47.730Z,101520.00
2019-06-26T10:22:18.082Z,101523.00
2019-06-26T10:24:48.822Z,101521.00
2019-06-26T10:27:19.188Z,101530.00
2019-06-26T10:29:49.580Z,101529.00
2019-06-26T10:32:19.949Z,101523.00
2019-06-26T10:34:50.673Z,101518.00
2019-06-26T10:37:21.038Z,101526.00
2019-06-26T10:39:51.362Z,101517.00
2019-06-26T10:42:21.737Z,101522.00
2019-06-26T10:44:52.672Z,101523.00
2019-06-26T10:47:23.104Z,101523.00
2019-06-26T10:49:53.460Z,101527.00
2019-06-26T10:52:23.831Z,101526.00
2019-06-26T10:54:54.184Z,101530.00
2019-06-26T10:57:25.464Z,101527.00
2019-06-26T10:59:56.176Z,101524.00
2019-06-26T11:02:27.365Z,101533.00
2019-06-26T11:04:57.784Z,101537.00
2019-06-26T11:07:28.428Z,101531.00
2019-06-26T11:09:58.844Z,101538.00
2019-06-26T11:12:29.336Z,101535.00
2019-06-26T11:14:59.945Z,101536.00
2019-06-26T11:17:30.307Z,101531.00
2019-06-26T11:20:00.703Z,101538.00
2019-06-26T11:22:31.647Z,101533.00
2019-06-26T11:25:02.386Z,101540.00
2019-06-26T11:27:32.648Z,101537.00
2019-06-26T11:30:03.652Z,101531.00
2019-06-26T11:32:34.423Z,101528.00
2019-06-26T11:35:05.796Z,101524.00
2019-06-26T11:37:36.455Z,101530.00
2019-06-26T11:40:07.954Z,101532.00
2019-06-26T11:42:38.306Z,101533.00
2019-06-26T11:45:12.296Z,101524.00
2019-06-26T11:47:45.717Z,101531.00
2019-06-26T11:50:15.266Z,101540.00
2019-06-26T11:52:45.935Z,101526.00
2019-06-26T11:55:17.207Z,101524.00
2019-06-26T11:57:47.691Z,101527.00
2019-06-26T12:00:20.292Z,101530.00
2019-06-26T12:02:50.608Z,101532.00
2019-06-26T12:05:21.232Z,101516.00
2019-06-26T12:07:51.672Z,101522.00
2019-06-26T12:10:22.482Z,101523.00
2019-06-26T12:12:52.796Z,101528.00
2019-06-26T12:15:25.775Z,101523.00
2019-06-26T12:17:56.107Z,101518.00
2019-06-26T12:20:26.541Z,101530.00
2019-06-26T12:22:57.291Z,101525.00
2019-06-26T12:25:27.935Z,101518.00
2019-06-26T12:27:58.308Z,101521.00
2019-06-26T12:30:28.922Z,101517.00
2019-06-26T12:33:03.444Z,101524.00
2019-06-26T12:35:31.481Z,101519.00
2019-06-26T12:38:01.882Z,101518.00
2019-06-26T12:40:32.256Z,101514.00
2019-06-26T12:43:02.905Z,101518.00
2019-06-26T12:45:33.281Z,101509.00
2019-06-26T12:48:03.618Z,101509.00
2019-06-26T12:50:36.129Z,101515.00
2019-06-26T12:53:06.894Z,101508.00
2019-06-26T12:55:37.305Z,101512.00
2019-06-26T12:58:14.113Z,101518.00
2019-06-26T13:00:39.708Z,101507.00
2019-06-26T13:03:10.046Z,101515.00
2019-06-26T13:05:40.385Z,101521.00
2019-06-26T13:08:10.994Z,101523.00
2019-06-26T13:10:49.807Z,101530.00
2019-06-26T13:13:13.482Z,101524.00
2019-06-26T13:15:43.830Z,101528.00
2019-06-26T13:18:14.542Z,101532.00
2019-06-26T13:20:52.824Z,101534.00
2019-06-26T13:23:17.670Z,101534.00
2019-06-26T13:25:48.035Z,101542.00
2019-06-26T13:28:18.375Z,101553.00
2019-06-26T13:30:52.979Z,101541.00
2019-06-26T13:33:21.362Z,101545.00
2019-06-26T13:35:52.202Z,101548.00
2019-06-26T13:38:22.512Z,101544.00
2019-06-26T13:40:52.961Z,101539.00
2019-06-26T13:43:23.294Z,101546.00
2019-06-26T13:45:53.640Z,101561.00
2019-06-26T13:48:25.136Z,101548.00
2019-06-26T13:51:08.788Z,101543.00
2019-06-26T13:53:28.133Z,101560.00
2019-06-26T13:55:58.542Z,101571.00
2019-06-26T13:58:29.608Z,101573.00
2019-06-26T14:00:59.970Z,101578.00
2019-06-26T14:03:30.871Z,101576.00
2019-06-26T14:06:01.621Z,101579.00
2019-06-26T14:08:32.996Z,101577.00
2019-06-26T14:11:07.270Z,101571.00
2019-06-26T14:13:36.112Z,101570.00
2019-06-26T14:16:06.502Z,101578.00
2019-06-26T14:18:37.062Z,101572.00
2019-06-26T14:21:07.381Z,101579.00
2019-06-26T14:23:38.069Z,101583.00
2019-06-26T14:26:08.866Z,101587.00
2019-06-26T14:28:39.246Z,101576.00
2019-06-26T14:31:09.699Z,101591.00
2019-06-26T14:33:40.049Z,101595.00
2019-06-26T14:36:10.927Z,101581.00
2019-06-26T14:38:41.366Z,101582.00
2019-06-26T14:41:12.233Z,101592.00
2019-06-26T14:43:42.859Z,101587.00
2019-06-26T14:46:13.772Z,101586.00
2019-06-26T14:48:44.510Z,101591.00
2019-06-26T14:51:15.323Z,101586.00
2019-06-26T14:53:46.507Z,101588.00
2019-06-26T14:56:17.271Z,101593.00
2019-06-26T14:58:47.667Z,101598.00
2019-06-26T15:01:18.327Z,101598.00
2019-06-26T15:03:48.681Z,101590.00
2019-06-26T15:06:19.029Z,101592.00
2019-06-26T15:08:49.597Z,101594.00
2019-06-26T15:11:21.043Z,101592.00
2019-06-26T15:13:51.500Z,101583.00
2019-06-26T15:16:22.277Z,101584.00
2019-06-26T15:18:52.904Z,101589.00
2019-06-26T15:21:23.206Z,101575.00
2019-06-26T15:23:54.162Z,101582.00
2019-06-26T15:26:24.497Z,101580.00
2019-06-26T15:28:54.826Z,101588.00
2019-06-26T15:31:25.218Z,101582.00
2019-06-26T15:33:55.796Z,101585.00
2019-06-26T15:36:26.302Z,101584.00
2019-06-26T15:38:59.135Z,101597.00
2019-06-26T15:41:29.414Z,101583.00
2019-06-26T15:43:59.714Z,101598.00
2019-06-26T15:46:30.380Z,101604.00
2019-06-26T15:49:00.714Z,101599.00
2019-06-26T15:51:31.051Z,101601.00
2019-06-26T15:54:02.038Z,101603.00
2019-06-26T15:56:32.897Z,101615.00
2019-06-26T15:59:03.634Z,101606.00
2019-06-26T16:01:34.252Z,101604.00
2019-06-26T16:04:04.583Z,101607.00
2019-06-26T16:06:35.010Z,101618.00
2019-06-26T16:09:06.779Z,101608.00
2019-06-26T16:11:37.111Z,101623.00
2019-06-26T16:14:07.702Z,101621.00
2019-06-26T16:16:39.781Z,101631.00
2019-06-26T16:19:14.099Z,101623.00
2019-06-26T16:21:44.490Z,101634.00
2019-06-26T16:24:14.965Z,101628.00
2019-06-26T16:26:45.375Z,101624.00
2019-06-26T16:29:15.795Z,101617.00
2019-06-26T16:31:46.754Z,101618.00
2019-06-26T16:34:18.995Z,101631.00
2019-06-26T16:36:49.891Z,101626.00
2019-06-26T16:39:22.383Z,101622.00
2019-06-26T16:41:52.987Z,101628.00
2019-06-26T16:44:23.659Z,101624.00
2019-06-26T16:46:53.977Z,101627.00
2019-06-26T16:49:24.311Z,101624.00
2019-06-26T16:51:54.595Z,101629.00
2019-06-26T16:54:25.190Z,101634.00
2019-06-26T16:56:56.071Z,101641.00
2019-06-26T16:59:26.506Z,101639.00
2019-06-26T17:01:57.184Z,101665.00
2019-06-26T17:04:27.546Z,101651.00
2019-06-26T17:06:57.899Z,101656.00
2019-06-26T17:09:28.508Z,101658.00
2019-06-26T17:11:58.915Z,101664.00
2019-06-26T17:14:29.564Z,101658.00
2019-06-26T17:17:00.501Z,101653.00
2019-06-26T17:19:30.835Z,101666.00
2019-06-26T17:22:01.232Z,101676.00
2019-06-26T17:24:32.145Z,101670.00
2019-06-26T17:27:02.579Z,101666.00
2019-06-26T17:29:33.179Z,101658.00
2019-06-26T17:32:03.993Z,101673.00
2019-06-26T17:34:34.295Z,101673.00
2019-06-26T17:37:04.651Z,101663.00
2019-06-26T17:39:35.360Z,101673.00
2019-06-26T17:42:06.139Z,101674.00
2019-06-26T17:44:36.506Z,101673.00
2019-06-26T17:47:07.575Z,101685.00
2019-06-26T17:49:37.874Z,101685.00
2019-06-26T17:52:08.260Z,101691.00
2019-06-26T17:54:38.586Z,101681.00
2019-06-26T17:57:09.221Z,101681.00
2019-06-26T17:59:39.763Z,101684.00
2019-06-26T18:02:10.083Z,101688.00
2019-06-26T18:04:40.396Z,101698.00
2019-06-26T18:07:10.729Z,101691.00
2019-06-26T18:09:41.167Z,101701.00
2019-06-26T18:12:11.787Z,101708.00
2019-06-26T18:14:43.301Z,101709.00
2019-06-26T18:17:22.102Z,101719.00
2019-06-26T18:19:45.905Z,101708.00
2019-06-26T18:22:16.329Z,101713.00
2019-06-26T18:24:47.273Z,101715.00
2019-06-26T18:27:18.286Z,101707.00
2019-06-26T18:29:48.677Z,101709.00
2019-06-26T18:32:19.680Z,101710.00
2019-06-26T18:34:50.301Z,101721.00
2019-06-26T18:37:20.668Z,101716.00
2019-06-26T18:39:51.039Z,101724.00
2019-06-26T18:42:21.441Z,101727.00
2019-06-26T18:44:51.869Z,101728.00
2019-06-26T18:47:22.597Z,101733.00
2019-06-26T18:49:53.287Z,101735.00
2019-06-26T18:52:23.634Z,101738.00
2019-06-26T18:54:54.066Z,101729.00
2019-06-26T18:57:24.388Z,101725.00
2019-06-26T18:59:54.722Z,101726.00
2019-06-26T19:02:25.086Z,101739.00
2019-06-26T19:04:55.473Z,101731.00
2019-06-26T19:07:25.812Z,101738.00
2019-06-26T19:09:56.134Z,101747.00
2019-06-26T19:12:26.462Z,101745.00
2019-06-26T19:14:56.874Z,101755.00
2019-06-26T19:17:27.240Z,101759.00
2019-06-26T19:19:57.659Z,101765.00
2019-06-26T19:22:28.316Z,101766.00
2019-06-26T19:24:58.937Z,101758.00
2019-06-26T19:27:29.285Z,101763.00
2019-06-26T19:29:59.658Z,101772.00
2019-06-26T19:32:30.361Z,101766.00
2019-06-26T19:35:07.977Z,101782.00
2019-06-26T19:37:33.004Z,101781.00
2019-06-26T19:40:03.347Z,101789.00
2019-06-26T19:42:33.787Z,101802.00
2019-06-26T19:45:04.579Z,101803.00
2019-06-26T19:47:35.433Z,101798.00
2019-06-26T19:50:06.314Z,101796.00
2019-06-26T19:52:36.650Z,101803.00
2019-06-26T19:55:08.105Z,101810.00
2019-06-26T19:57:38.734Z,101814.00
2019-06-26T20:00:10.021Z,101814.00
2019-06-26T20:02:41.005Z,101816.00
2019-06-26T20:05:13.029Z,101824.00
2019-06-26T20:07:43.610Z,101816.00
2019-06-26T20:10:14.219Z,101821.00
2019-06-26T20:12:44.967Z,101815.00
2019-06-26T20:15:15.294Z,101827.00
2019-06-26T20:17:45.930Z,101826.00
2019-06-26T20:20:16.345Z,101814.00
2019-06-26T20:22:46.673Z,101821.00
2019-06-26T20:25:17.110Z,101827.00
2019-06-26T20:27:47.597Z,101823.00
2019-06-26T20:30:21.062Z,101830.00
2019-06-26T20:32:51.386Z,101822.00
2019-06-26T20:35:22.309Z,101825.00
2019-06-26T20:37:53.650Z,101827.00
2019-06-26T20:40:24.385Z,101826.00
2019-06-26T20:42:55.394Z,101828.00
2019-06-26T20:45:26.269Z,101839.00
2019-06-26T20:47:57.457Z,101835.00
2019-06-26T20:50:27.964Z,101841.00
2019-06-26T20:52:58.347Z,101831.00
2019-06-26T20:55:29.275Z,101841.00
2019-06-26T20:57:59.718Z,101847.00
2019-06-26T21:00:30.780Z,101843.00
2019-06-26T21:03:01.830Z,101841.00
2019-06-26T21:05:32.569Z,101843.00
2019-06-26T21:08:03.336Z,101848.00
2019-06-26T21:10:34.534Z,101841.00
2019-06-26T21:13:04.876Z,101840.00
2019-06-26T21:15:35.207Z,101842.00
2019-06-26T21:18:05.520Z,101857.00
2019-06-26T21:20:35.855Z,101855.00
2019-06-26T21:23:17.704Z,101847.00
2019-06-26T21:25:38.814Z,101853.00
2019-06-26T21:28:09.527Z,101856.00
2019-06-26T21:30:40.302Z,101853.00
2019-06-26T21:33:10.928Z,101860.00
2019-06-26T21:35:41.217Z,101841.00
2019-06-26T21:39:26.228Z,101860.00
2019-06-26T21:41:56.911Z,101860.00
2019-06-26T21:44:27.269Z,101865.00
2019-06-26T21:46:58.204Z,101873.00
2019-06-26T21:49:28.675Z,101871.00
2019-06-26T21:51:59.271Z,101873.00
2019-06-26T21:54:29.605Z,101870.00
2019-06-26T21:57:00.119Z,101872.00
2019-06-26T21:59:32.349Z,101878.00
2019-06-26T22:02:02.875Z,101874.00
2019-06-26T22:04:33.443Z,101873.00
2019-06-26T22:07:03.925Z,101870.00
2019-06-26T22:09:34.339Z,101865.00
2019-06-26T22:12:04.693Z,101878.00
2019-06-26T22:14:37.000Z,101873.00
2019-06-26T22:17:07.397Z,101877.00
2019-06-26T22:19:38.074Z,101878.00
2019-06-26T22:22:08.453Z,101880.00
2019-06-26T22:24:45.101Z,101880.00
2019-06-26T22:27:15.523Z,101879.00
2019-06-26T22:29:46.278Z,101888.00
2019-06-26T22:32:16.608Z,101896.00
2019-06-26T22:34:48.174Z,101895.00
2019-06-26T22:37:22.025Z,101891.00
2019-06-26T22:39:52.921Z,101893.00
2019-06-26T22:42:27.021Z,101902.00
2019-06-26T22:44:57.517Z,101900.00
2019-06-26T22:47:27.988Z,101897.00
2019-06-26T22:49:58.314Z,101902.00
2019-06-26T22:52:29.140Z,101910.00
2019-06-26T22:54:59.783Z,101907.00
2019-06-26T22:57:30.264Z,101911.00
2019-06-26T23:00:00.863Z,101917.00
2019-06-26T23:02:31.207Z,101915.00
2019-06-26T23:05:01.891Z,101911.00
2019-06-26T23:07:32.365Z,101914.00
2019-06-26T23:10:03.129Z,101905.00
2019-06-26T23:12:33.717Z,101908.00
2019-06-26T23:15:04.222Z,101899.00
2019-06-26T23:17:34.631Z,101906.00
2019-06-26T23:20:05.563Z,101908.00
2019-06-26T23:22:36.012Z,101908.00
2019-06-26T23:25:06.885Z,101909.00
2019-06-26T23:27:37.652Z,101902.00
2019-06-26T23:30:18.435Z,101918.00
2019-06-26T23:32:54.815Z,101915.00
2019-06-26T23:35:27.228Z,101912.00
2019-06-26T23:37:59.918Z,101910.00
2019-06-26T23:40:30.705Z,101908.00
2019-06-26T23:43:01.036Z,101905.00
2019-06-26T23:45:31.363Z,101918.00
2019-06-26T23:48:02.084Z,101912.00
2019-06-26T23:50:32.460Z,101907.00
2019-06-26T23:53:02.852Z,101913.00
2019-06-26T23:55:33.560Z,101924.00
2019-06-26T23:58:04.492Z,101914.00
